Coal Hill, AR (72832)

8:53 AM CST on December 11, 2016 (GMT -0600)
RVO CLARKSVILLE 64 W. | | Change Station

Elev 394 ft 35.46 °N, 93.53 °W | Updated 20 seconds ago

Overcast
Overcast
47.8 °F
Feels Like 45 °F
N
6.0
Wind Variable Wind from ESE
Gusts 11.5 mph

Today
High -- | Low -- °F
--% Chance of Precip.
Yesterday
High -- | Low -- °F
Precip. -- in
Pressure 30.01 in
Visibility 10.0 miles
Clouds Overcast 3100 ft
Windchill 45 °F
Dew Point 33 °F
Humidity 56%
Rainfall 0.00 in
Snow Depth Not available.
7:14 AM 5:02 PM
Waxing Gibbous, 92% visible
METAR KRUE 111353Z AUTO VRB03KT 10SM OVC031 08/M03 A3002 RMK AO2 SLP162 T00831028
Pressure 30.01 in
Visibility 10.0 miles
Clouds Overcast 3100 ft
Windchill 45 °F
Dew Point 33 °F
Humidity 56%
Rainfall 0.00 in
Snow Depth Not available.
7:14 AM 5:02 PM
Waxing Gibbous, 92% visible
METAR KRUE 111353Z AUTO VRB03KT 10SM OVC031 08/M03 A3002 RMK AO2 SLP162 T00831028

10-Day Weather Forecast

Almanac

Astronomy

Dec. 11, 2016 Rise Set
Actual Time
Civil Twilight
Nautical Twilight
Astronomical Twilight
Moon
Length of Visible Light
Length of Day
Tomorrow will be .
, % of the Moon is Illuminated

Today's Extremes

State Highs State Lows

Community

WunderPhotos

Upload Photos

1,956,719 photos uploaded!

WunderBlog® & News

Nearby

Air Quality

  Air Quality AQ Index Pollutant
Not available.

Snow Depth

Station Depth Elevation

Earthquake Activity

City Distance Mag. Time & Date
Minimum magnitude displayed is 2.5.

Coastal Water Temperatures

Place Temperature

Stations

Nearby Weather Stations

Station Location Temp. Windchill Dew Point Humidity Wind Precip. Elev Updated Type
                   

Watches & Warnings

There are currently no watches in effect.